createdAt,value
2022-08-17T00:00:43.215Z,95364.69
2022-08-17T00:03:17.366Z,95371.72
2022-08-17T00:05:43.898Z,95390.53
2022-08-17T00:08:10.291Z,95399.34
2022-08-17T00:10:36.734Z,95403.84
2022-08-17T00:13:03.115Z,95396.94
2022-08-17T00:15:29.522Z,95396.19
2022-08-17T00:17:55.941Z,95410.09
2022-08-17T00:20:23.397Z,95422.03
2022-08-17T00:22:57.164Z,95419.81
2022-08-17T00:25:23.541Z,95430.56
2022-08-17T00:27:49.946Z,95431.28
2022-08-17T00:30:16.404Z,95425.47
2022-08-17T00:33:13.959Z,95430.84
2022-08-17T00:35:29.279Z,95429.22
2022-08-17T00:37:55.669Z,95421.81
2022-08-17T00:40:22.045Z,95431.91
2022-08-17T00:42:51.384Z,95428.75
2022-08-17T00:45:17.933Z,95423.25
2022-08-17T00:47:44.320Z,95416.34
2022-08-17T00:50:10.774Z,95419.50
2022-08-17T00:52:37.194Z,95418.47
2022-08-17T00:55:03.574Z,95416.22
2022-08-17T00:57:29.987Z,95410.09
2022-08-17T01:00:02.677Z,95411.72
2022-08-17T01:02:29.852Z,95412.16
2022-08-17T01:05:00.708Z,95413.06
2022-08-17T01:07:27.106Z,95420.53
2022-08-17T01:09:53.646Z,95427.06
2022-08-17T01:12:20.023Z,95431.09
2022-08-17T01:14:46.398Z,95430.06
2022-08-17T01:17:12.948Z,95436.69
2022-08-17T01:19:39.332Z,95422.19
2022-08-17T01:22:05.762Z,95433.03
2022-08-17T01:24:33.724Z,95436.31
2022-08-17T01:27:00.278Z,95434.38
2022-08-17T01:29:26.741Z,95435.72
2022-08-17T01:31:53.269Z,95439.59
2022-08-17T01:34:19.631Z,95444.66
2022-08-17T01:36:46.821Z,95445.41
2022-08-17T01:39:13.303Z,95443.19
2022-08-17T01:41:39.684Z,95453.78
2022-08-17T01:44:06.054Z,95457.97
2022-08-17T01:46:32.479Z,95447.22
2022-08-17T01:48:58.847Z,95460.34
2022-08-17T01:51:25.238Z,95454.22
2022-08-17T01:53:51.732Z,95455.41
2022-08-17T01:56:18.110Z,95451.84
2022-08-17T01:58:44.492Z,95440.41
2022-08-17T02:01:11.026Z,95434.38
2022-08-17T02:03:37.481Z,95440.59
2022-08-17T02:06:05.171Z,95435.22
2022-08-17T02:08:39.576Z,95436.84
2022-08-17T02:11:18.170Z,95438.47
2022-08-17T02:13:46.241Z,95450.00
2022-08-17T02:16:12.648Z,95432.34
2022-08-17T02:18:39.030Z,95432.81
2022-08-17T02:21:05.508Z,95447.88
2022-08-17T02:23:31.925Z,95455.19
2022-08-17T02:25:58.349Z,95460.56
2022-08-17T02:28:24.867Z,95462.19
2022-08-17T02:31:01.747Z,95467.97
2022-08-17T02:33:43.037Z,95469.94
2022-08-17T02:36:09.948Z,95482.34
2022-08-17T02:38:36.359Z,95460.66
2022-08-17T02:41:02.737Z,95448.59
2022-08-17T02:43:29.126Z,95445.63
2022-08-17T02:45:55.566Z,95429.94
2022-08-17T02:48:30.809Z,95395.16
2022-08-17T02:50:58.165Z,95375.59
2022-08-17T02:53:24.573Z,95380.69
2022-08-17T02:55:52.212Z,95384.56
2022-08-17T02:58:34.404Z,95376.19
2022-08-17T03:01:02.263Z,95369.63
2022-08-17T03:03:28.723Z,95353.97
2022-08-17T03:05:55.092Z,95361.28
2022-08-17T03:08:21.471Z,95375.47
2022-08-17T03:10:47.905Z,95381.56
2022-08-17T03:13:14.295Z,95385.03
2022-08-17T03:15:40.795Z,95374.53
2022-08-17T03:18:18.879Z,95374.44
2022-08-17T03:20:50.800Z,95368.28
2022-08-17T03:23:18.321Z,95354.97
2022-08-17T03:25:44.726Z,95363.34
2022-08-17T03:28:12.142Z,95353.06
2022-08-17T03:30:38.591Z,95351.88
2022-08-17T03:33:04.961Z,95337.41
2022-08-17T03:35:31.352Z,95328.59
2022-08-17T03:38:00.463Z,95333.19
2022-08-17T03:40:34.785Z,95322.47
2022-08-17T03:43:13.757Z,95313.81
2022-08-17T03:45:40.148Z,95312.63
2022-08-17T03:48:06.564Z,95312.63
2022-08-17T03:50:32.997Z,95309.31
2022-08-17T03:52:59.562Z,95307.06
2022-08-17T03:55:35.870Z,95301.31
2022-08-17T03:58:02.879Z,95310.97
2022-08-17T04:00:29.283Z,95309.16
2022-08-17T04:02:55.678Z,95318.44
2022-08-17T04:05:22.106Z,95315.00
2022-08-17T04:07:48.491Z,95310.78
2022-08-17T04:10:14.943Z,95317.38
2022-08-17T04:12:41.382Z,95331.97
2022-08-17T04:15:07.770Z,95343.19
2022-08-17T04:17:34.156Z,95339.75
2022-08-17T04:20:00.608Z,95340.91
2022-08-17T04:22:32.205Z,95340.91
2022-08-17T04:25:00.400Z,95330.94
2022-08-17T04:27:26.811Z,95338.88
2022-08-17T04:29:55.041Z,95323.78
2022-08-17T04:32:58.390Z,95313.06
2022-08-17T04:35:08.696Z,95320.19
2022-08-17T04:37:35.137Z,95315.69
2022-08-17T04:40:04.132Z,95314.66
2022-08-17T04:42:30.933Z,95301.97
2022-08-17T04:44:57.423Z,95309.16
2022-08-17T04:47:23.809Z,95319.88
2022-08-17T04:49:50.186Z,95327.31
2022-08-17T04:52:29.715Z,95330.91
2022-08-17T04:55:02.988Z,95327.44
2022-08-17T04:57:29.420Z,95338.19
2022-08-17T05:00:05.942Z,95339.38
2022-08-17T05:02:32.472Z,95348.28
2022-08-17T05:04:58.863Z,95343.84
2022-08-17T05:07:31.317Z,95340.91
2022-08-17T05:09:58.093Z,95340.69
2022-08-17T05:12:24.467Z,95333.81
2022-08-17T05:14:50.838Z,95344.25
2022-08-17T05:17:17.280Z,95348.88
2022-08-17T05:19:43.650Z,95348.88
2022-08-17T05:22:10.041Z,95351.72
2022-08-17T05:24:43.141Z,95355.88
2022-08-17T05:27:20.085Z,95355.16
2022-08-17T05:29:46.779Z,95362.88
2022-08-17T05:32:38.357Z,95375.09
2022-08-17T05:35:00.138Z,95375.56
2022-08-17T05:37:26.568Z,95387.19
2022-08-17T05:39:52.968Z,95384.22
2022-08-17T05:42:19.429Z,95380.34
2022-08-17T05:44:45.796Z,95390.16
2022-08-17T05:47:12.177Z,95392.84
2022-08-17T05:49:38.616Z,95394.94
2022-08-17T05:52:05.005Z,95409.13
2022-08-17T05:54:31.413Z,95403.13
2022-08-17T05:56:57.868Z,95410.88
2022-08-17T05:59:24.251Z,95416.31
2022-08-17T06:01:50.643Z,95417.66
2022-08-17T06:04:19.381Z,95418.22
2022-08-17T06:06:45.769Z,95414.78
2022-08-17T06:09:12.313Z,95413.72
2022-08-17T06:11:38.740Z,95424.94
2022-08-17T06:14:05.142Z,95426.94
2022-08-17T06:16:34.491Z,95426.94
2022-08-17T06:19:01.232Z,95441.97
2022-08-17T06:21:31.914Z,95439.44
2022-08-17T06:23:58.702Z,95454.44
2022-08-17T06:26:25.901Z,95450.25
2022-08-17T06:28:57.603Z,95450.69
2022-08-17T06:31:24.007Z,95462.59
2022-08-17T06:33:50.440Z,95452.31
2022-08-17T06:36:16.833Z,95446.94
2022-08-17T06:38:44.381Z,95442.75
2022-08-17T06:41:10.833Z,95450.81
2022-08-17T06:43:37.272Z,95453.22
2022-08-17T06:46:04.135Z,95446.53
2022-08-17T06:48:30.645Z,95442.84
2022-08-17T06:50:57.025Z,95445.88
2022-08-17T06:53:23.400Z,95451.66
2022-08-17T06:55:49.960Z,95461.22
2022-08-17T06:58:17.001Z,95460.47
2022-08-17T07:00:43.537Z,95471.94
2022-08-17T07:03:10.377Z,95466.59
2022-08-17T07:05:36.986Z,95462.09
2022-08-17T07:08:05.195Z,95455.22
2022-08-17T07:10:31.661Z,95454.47
2022-08-17T07:12:58.088Z,95462.50
2022-08-17T07:15:24.482Z,95469.56
2022-08-17T07:17:50.909Z,95463.66
2022-08-17T07:20:17.300Z,95465.38
2022-08-17T07:22:53.547Z,95474.44
2022-08-17T07:25:26.367Z,95487.53
2022-08-17T07:27:52.940Z,95489.00
2022-08-17T07:30:19.413Z,95485.91
2022-08-17T07:32:45.836Z,95494.25
2022-08-17T07:35:12.220Z,95492.34
2022-08-17T07:37:41.597Z,95485.03
2022-08-17T07:40:15.971Z,95474.19
2022-08-17T07:42:46.559Z,95472.56
2022-08-17T07:45:13.272Z,95467.41
2022-08-17T07:47:39.686Z,95463.00
2022-08-17T07:50:06.073Z,95460.69
2022-08-17T07:52:51.972Z,95460.44
2022-08-17T07:55:18.724Z,95469.25
2022-08-17T07:57:45.154Z,95466.41
2022-08-17T08:00:12.861Z,95467.94
2022-08-17T08:02:42.814Z,95472.53
2022-08-17T08:05:10.130Z,95487.03
2022-08-17T08:07:36.622Z,95490.91
2022-08-17T08:10:03.018Z,95485.84
2022-08-17T08:12:33.429Z,95485.53
2022-08-17T08:15:00.134Z,95492.88
2022-08-17T08:17:26.511Z,95477.59
2022-08-17T08:19:52.952Z,95476.19
2022-08-17T08:22:19.327Z,95478.66
2022-08-17T08:24:45.706Z,95484.03
2022-08-17T08:27:13.487Z,95482.53
2022-08-17T08:29:39.877Z,95479.41
2022-08-17T08:32:06.258Z,95485.94
2022-08-17T08:34:58.973Z,95489.84
2022-08-17T08:37:27.442Z,95502.34
2022-08-17T08:39:59.293Z,95495.06
2022-08-17T08:42:25.948Z,95490.34
2022-08-17T08:45:01.097Z,95498.94
2022-08-17T08:47:31.349Z,95489.34
2022-08-17T08:50:04.497Z,95479.34
2022-08-17T08:52:31.394Z,95480.13
2022-08-17T08:54:57.775Z,95485.91
2022-08-17T08:57:28.022Z,95489.66
2022-08-17T08:59:57.701Z,95486.22
2022-08-17T09:02:24.784Z,95486.84
2022-08-17T09:05:13.429Z,95490.28
2022-08-17T09:07:37.632Z,95481.38
2022-08-17T09:10:04.048Z,95484.34
2022-08-17T09:12:30.427Z,95476.63
2022-08-17T09:14:56.865Z,95480.06
2022-08-17T09:17:23.260Z,95464.78
2022-08-17T09:19:49.634Z,95463.81
2022-08-17T09:22:16.075Z,95461.44
2022-08-17T09:24:42.477Z,95471.75
2022-08-17T09:27:08.879Z,95478.28
2022-08-17T09:29:35.486Z,95486.97
2022-08-17T09:32:01.931Z,95489.22
2022-08-17T09:34:32.002Z,95486.81
2022-08-17T09:36:59.592Z,95484.59
2022-08-17T09:39:26.065Z,95479.84
2022-08-17T09:41:52.523Z,95474.78
2022-08-17T09:44:22.979Z,95472.00
2022-08-17T09:46:50.192Z,95471.13
2022-08-17T09:49:16.605Z,95478.13
2022-08-17T09:51:43.061Z,95470.72
2022-08-17T09:54:36.950Z,95472.13
2022-08-17T09:57:11.914Z,95469.72
2022-08-17T09:59:42.242Z,95468.13
2022-08-17T10:02:08.858Z,95473.06
2022-08-17T10:04:39.903Z,95473.69
2022-08-17T10:07:06.280Z,95468.44
2022-08-17T10:09:32.722Z,95469.03
2022-08-17T10:11:59.157Z,95475.91
2022-08-17T10:14:37.607Z,95476.22
2022-08-17T10:17:10.172Z,95483.94
2022-08-17T10:19:36.558Z,95471.41
2022-08-17T10:22:32.419Z,95475.50
2022-08-17T10:25:21.701Z,95468.31
2022-08-17T10:27:35.815Z,95465.94
2022-08-17T10:30:02.321Z,95454.44
2022-08-17T10:32:28.773Z,95459.06
2022-08-17T10:34:55.191Z,95447.13
2022-08-17T10:37:21.603Z,95447.44
2022-08-17T10:39:51.947Z,95450.13
2022-08-17T10:42:30.848Z,95440.91
2022-08-17T10:44:59.568Z,95429.28
2022-08-17T10:47:25.954Z,95431.97
2022-08-17T10:49:52.387Z,95430.59
2022-08-17T10:52:18.838Z,95411.09
2022-08-17T10:54:45.236Z,95411.19
2022-08-17T10:57:11.624Z,95412.81
2022-08-17T10:59:38.036Z,95420.00
2022-08-17T11:02:04.456Z,95426.84
2022-08-17T11:04:30.874Z,95421.47
2022-08-17T11:06:57.321Z,95414.91
2022-08-17T11:09:23.723Z,95410.31
2022-08-17T11:11:50.117Z,95408.66
2022-08-17T11:14:16.651Z,95400.91
2022-08-17T11:16:43.018Z,95402.84
2022-08-17T11:19:09.501Z,95406.59
2022-08-17T11:21:35.927Z,95410.28
2022-08-17T11:24:02.339Z,95407.53
2022-08-17T11:26:29.173Z,95410.47
2022-08-17T11:28:55.900Z,95409.28
2022-08-17T11:31:22.287Z,95409.16
2022-08-17T11:34:05.798Z,95409.28
2022-08-17T11:36:32.188Z,95408.53
2022-08-17T11:38:58.555Z,95411.34
2022-08-17T11:41:24.981Z,95406.28
2022-08-17T11:43:51.392Z,95410.78
2022-08-17T11:46:17.766Z,95399.16
2022-08-17T11:48:44.201Z,95396.78
2022-08-17T11:51:10.577Z,95390.06
2022-08-17T11:53:36.978Z,95384.25
2022-08-17T11:56:03.404Z,95377.06
2022-08-17T11:58:29.793Z,95372.19
2022-08-17T12:00:56.179Z,95376.34
2022-08-17T12:03:22.665Z,95367.69
2022-08-17T12:05:49.154Z,95369.63
2022-08-17T12:08:15.558Z,95364.25
2022-08-17T12:10:42.101Z,95355.75
2022-08-17T12:13:08.478Z,95359.78
2022-08-17T12:15:34.877Z,95343.34
2022-08-17T12:18:01.302Z,95347.69
2022-08-17T12:20:27.709Z,95335.31
2022-08-17T12:22:54.105Z,95327.41
2022-08-17T12:25:20.568Z,95332.94
2022-08-17T12:28:05.550Z,95334.72
2022-08-17T12:30:33.402Z,95351.53
2022-08-17T12:32:59.793Z,95341.47
2022-08-17T12:35:26.175Z,95338.16
2022-08-17T12:37:52.690Z,95332.78
2022-08-17T12:40:19.172Z,95328.75
2022-08-17T12:42:45.562Z,95329.97
2022-08-17T12:45:11.993Z,95324.91
2022-08-17T12:47:38.409Z,95315.66
2022-08-17T12:50:04.790Z,95314.91
2022-08-17T12:52:31.218Z,95308.47
2022-08-17T12:54:57.637Z,95307.28
2022-08-17T12:57:24.041Z,95299.53
2022-08-17T12:59:50.505Z,95284.91
2022-08-17T13:02:16.888Z,95282.38
2022-08-17T13:04:43.308Z,95287.47
2022-08-17T13:07:09.777Z,95267.91
2022-08-17T13:09:40.174Z,95267.59
2022-08-17T13:12:07.527Z,95260.41
2022-08-17T13:14:34.277Z,95261.47
2022-08-17T13:17:00.727Z,95258.03
2022-08-17T13:19:39.869Z,95251.47
2022-08-17T13:22:07.931Z,95241.91
2022-08-17T13:24:38.103Z,95247.59
2022-08-17T13:27:07.788Z,95250.59
2022-08-17T13:29:35.042Z,95255.19
2022-08-17T13:32:04.265Z,95245.63
2022-08-17T13:34:31.427Z,95238.31
2022-08-17T13:36:59.714Z,95232.50
2022-08-17T13:39:26.288Z,95232.50
2022-08-17T13:41:52.757Z,95240.72
2022-08-17T13:44:19.215Z,95251.34
2022-08-17T13:46:45.592Z,95238.06
2022-08-17T13:49:18.815Z,95246.53
2022-08-17T13:51:45.242Z,95254.75
2022-08-17T13:54:11.645Z,95254.75
2022-08-17T13:56:39.578Z,95268.94
2022-08-17T13:59:06.218Z,95254.75
2022-08-17T14:01:32.713Z,95263.41
2022-08-17T14:03:59.172Z,95264.91
2022-08-17T14:06:52.504Z,95256.84
2022-08-17T14:09:12.086Z,95254.16
2022-08-17T14:11:38.593Z,95249.81
2022-08-17T14:14:05.002Z,95254.75
2022-08-17T14:16:31.691Z,95245.63
2022-08-17T14:18:58.139Z,95253.44
2022-08-17T14:21:24.544Z,95252.53
2022-08-17T14:23:54.644Z,95246.84
2022-08-17T14:26:21.506Z,95246.38
2022-08-17T14:28:54.557Z,95236.84
2022-08-17T14:31:23.229Z,95240.44
2022-08-17T14:33:49.641Z,95229.97
2022-08-17T14:36:16.077Z,95221.78
2022-08-17T14:38:42.557Z,95227.88
2022-08-17T14:41:08.966Z,95222.53
2022-08-17T14:43:35.359Z,95228.03
2022-08-17T14:46:01.816Z,95224.59
2022-08-17T14:48:28.211Z,95222.38
2022-08-17T14:50:54.592Z,95217.44
2022-08-17T14:53:21.137Z,95225.34
2022-08-17T14:55:47.527Z,95214.16
2022-08-17T14:58:15.141Z,95216.84
2022-08-17T15:00:41.551Z,95198.50
2022-08-17T15:03:07.944Z,95203.25
2022-08-17T15:05:34.327Z,95197.44
2022-08-17T15:08:00.873Z,95194.16
2022-08-17T15:10:27.276Z,95191.75
2022-08-17T15:12:53.660Z,95194.16
2022-08-17T15:15:20.102Z,95194.00
2022-08-17T15:17:46.524Z,95194.59
2022-08-17T15:20:15.032Z,95187.31
2022-08-17T15:22:42.287Z,95186.09
2022-08-17T15:25:08.703Z,95164.88
2022-08-17T15:27:35.101Z,95167.00
2022-08-17T15:30:01.553Z,95164.59
2022-08-17T15:32:27.970Z,95174.16
2022-08-17T15:34:54.353Z,95168.47
2022-08-17T15:37:20.789Z,95152.81
2022-08-17T15:39:47.221Z,95148.06
2022-08-17T15:42:13.660Z,95155.78
2022-08-17T15:44:40.074Z,95149.69
2022-08-17T15:47:06.665Z,95150.72
2022-08-17T15:49:33.056Z,95150.28
2022-08-17T15:51:59.592Z,95126.41
2022-08-17T15:54:34.500Z,95121.66
2022-08-17T15:57:02.432Z,95110.59
2022-08-17T15:59:28.824Z,95093.28
2022-08-17T16:03:01.742Z,95087.16
2022-08-17T16:04:43.953Z,95088.09
2022-08-17T16:07:10.655Z,95114.19
2022-08-17T16:09:37.057Z,95131.66
2022-08-17T16:12:03.825Z,95152.09
2022-08-17T16:14:34.897Z,95169.97
2022-08-17T16:17:01.701Z,95172.97
2022-08-17T16:19:28.201Z,95171.19
2022-08-17T16:21:54.591Z,95154.47
2022-08-17T16:24:20.976Z,95152.25
2022-08-17T16:26:47.524Z,95182.97
2022-08-17T16:29:14.262Z,95228.63
2022-08-17T16:31:40.641Z,95303.69
2022-08-17T16:34:17.857Z,95371.44
2022-08-17T16:36:55.472Z,95409.22
2022-08-17T16:39:22.884Z,95437.72
2022-08-17T16:41:49.277Z,95486.41
2022-08-17T16:44:15.773Z,95510.91
2022-08-17T16:46:45.534Z,95558.94
2022-08-17T16:49:12.498Z,95534.16
2022-08-17T16:51:58.890Z,95558.38
2022-08-17T16:54:25.327Z,95585.47
2022-08-17T16:56:51.724Z,95599.19
2022-08-17T16:59:30.077Z,95597.69
2022-08-17T17:01:58.718Z,95607.09
2022-08-17T17:04:26.780Z,95609.69
2022-08-17T17:06:53.169Z,95588.94
2022-08-17T17:09:19.538Z,95572.06
2022-08-17T17:11:45.968Z,95578.38
2022-08-17T17:14:12.376Z,95593.00
2022-08-17T17:16:40.392Z,95599.13
2022-08-17T17:19:10.571Z,95615.16
2022-08-17T17:21:36.956Z,95631.34
2022-08-17T17:24:03.349Z,95622.31
2022-08-17T17:26:29.755Z,95638.00
2022-08-17T17:28:56.149Z,95643.81
2022-08-17T17:31:22.553Z,95659.94
2022-08-17T17:33:48.988Z,95668.00
2022-08-17T17:36:15.367Z,95656.38
2022-08-17T17:38:41.780Z,95654.88
2022-08-17T17:41:08.221Z,95647.78
2022-08-17T17:43:39.643Z,95657.25
2022-08-17T17:46:26.662Z,95671.44
2022-08-17T17:48:52.733Z,95687.88
2022-08-17T17:52:09.146Z,95691.75
2022-08-17T17:54:05.542Z,95705.50
2022-08-17T17:56:43.349Z,95702.59
2022-08-17T17:59:12.714Z,95711.06
2022-08-17T18:01:39.428Z,95718.19
2022-08-17T18:04:08.345Z,95716.13
2022-08-17T18:06:46.839Z,95729.56
2022-08-17T18:09:19.335Z,95733.13
2022-08-17T18:11:46.030Z,95735.50
2022-08-17T18:14:17.893Z,95733.38
2022-08-17T18:16:44.277Z,95730.13
2022-08-17T18:19:10.652Z,95722.38
2022-08-17T18:21:37.105Z,95721.81
2022-08-17T18:24:03.526Z,95727.19
2022-08-17T18:26:29.896Z,95727.88
2022-08-17T18:28:58.591Z,95733.69
2022-08-17T18:31:24.985Z,95750.13
2022-08-17T18:33:51.363Z,95749.25
2022-08-17T18:36:17.872Z,95735.94
2022-08-17T18:38:44.283Z,95726.69
2022-08-17T18:41:10.710Z,95728.31
2022-08-17T18:43:44.469Z,95736.16
2022-08-17T18:46:29.263Z,95749.59
2022-08-17T18:48:59.251Z,95772.06
2022-08-17T18:51:39.751Z,95787.75
2022-08-17T18:54:08.238Z,95781.50
2022-08-17T18:56:34.622Z,95774.41
2022-08-17T18:59:01.012Z,95771.53
2022-08-17T19:01:52.459Z,95784.75
2022-08-17T19:04:13.819Z,95792.25
2022-08-17T19:06:40.271Z,95798.25
2022-08-17T19:09:06.648Z,95791.28
2022-08-17T19:11:33.030Z,95785.72
2022-08-17T19:13:59.474Z,95789.38
2022-08-17T19:16:25.851Z,95788.31
2022-08-17T19:18:52.232Z,95793.69
2022-08-17T19:21:18.697Z,95781.94
2022-08-17T19:23:53.861Z,95778.94
2022-08-17T19:26:51.345Z,95780.31
2022-08-17T19:29:07.283Z,95778.31
2022-08-17T19:31:36.130Z,95778.31
2022-08-17T19:34:02.525Z,95776.59
2022-08-17T19:36:28.931Z,95773.31
2022-08-17T19:38:55.357Z,95791.25
2022-08-17T19:41:21.738Z,95793.16
2022-08-17T19:43:48.190Z,95798.31
2022-08-17T19:46:14.644Z,95812.28
2022-08-17T19:48:41.015Z,95810.75
2022-08-17T19:51:07.420Z,95798.06
2022-08-17T19:54:01.485Z,95792.81
2022-08-17T19:56:20.205Z,95799.47
2022-08-17T19:58:46.635Z,95809.59
2022-08-17T20:01:13.574Z,95810.22
2022-08-17T20:03:40.020Z,95800.22
2022-08-17T20:06:13.120Z,95796.25
2022-08-17T20:08:40.344Z,95789.38
2022-08-17T20:11:06.777Z,95778.44
2022-08-17T20:13:33.946Z,95767.38
2022-08-17T20:16:00.469Z,95765.44
2022-08-17T20:18:26.882Z,95752.88
2022-08-17T20:20:54.787Z,95762.06
2022-08-17T20:23:22.189Z,95747.25
2022-08-17T20:25:48.640Z,95743.25
2022-08-17T20:28:15.032Z,95735.75
2022-08-17T20:30:41.440Z,95739.13
2022-08-17T20:33:07.864Z,95737.38
2022-08-17T20:35:38.876Z,95739.44
2022-08-17T20:38:05.265Z,95747.31
2022-08-17T20:40:31.707Z,95753.75
2022-08-17T20:42:58.077Z,95744.50
2022-08-17T20:45:24.464Z,95732.56
2022-08-17T20:48:15.528Z,95725.56
2022-08-17T20:50:37.248Z,95716.69
2022-08-17T20:53:03.673Z,95699.50
2022-08-17T20:55:30.052Z,95702.19
2022-08-17T20:57:56.456Z,95710.81
2022-08-17T21:00:22.885Z,95712.38
2022-08-17T21:02:49.285Z,95705.69
2022-08-17T21:05:15.664Z,95713.91
2022-08-17T21:07:54.299Z,95709.69
2022-08-17T21:10:20.801Z,95710.16
2022-08-17T21:12:47.260Z,95705.84
2022-08-17T21:15:13.662Z,95712.69
2022-08-17T21:17:40.064Z,95711.50
2022-08-17T21:20:13.537Z,95710.75
2022-08-17T21:22:39.955Z,95716.13
2022-08-17T21:25:06.423Z,95710.19
2022-08-17T21:27:32.820Z,95705.69
2022-08-17T21:29:59.196Z,95703.81
2022-08-17T21:32:25.793Z,95700.16
2022-08-17T21:34:52.166Z,95703.97
2022-08-17T21:37:18.545Z,95695.97
2022-08-17T21:39:46.327Z,95689.22
2022-08-17T21:42:12.728Z,95687.81
2022-08-17T21:44:39.107Z,95685.69
2022-08-17T21:47:05.584Z,95684.50
2022-08-17T21:49:31.981Z,95673.44
2022-08-17T21:52:04.443Z,95639.09
2022-08-17T21:54:30.906Z,95620.72
2022-08-17T21:56:57.286Z,95599.69
2022-08-17T21:59:23.660Z,95590.88
2022-08-17T22:01:50.548Z,95610.84
2022-08-17T22:04:19.380Z,95646.94
2022-08-17T22:06:52.276Z,95686.69
2022-08-17T22:09:23.961Z,95697.91
2022-08-17T22:11:50.341Z,95692.31
2022-08-17T22:14:16.730Z,95694.69
2022-08-17T22:16:43.954Z,95700.94
2022-08-17T22:19:10.335Z,95699.44
2022-08-17T22:21:36.717Z,95694.19
2022-08-17T22:24:03.217Z,95699.34
2022-08-17T22:26:29.611Z,95700.97
2022-08-17T22:28:56.021Z,95702.13
2022-08-17T22:31:22.834Z,95693.88
2022-08-17T22:33:49.214Z,95698.91
2022-08-17T22:36:15.604Z,95692.06
2022-08-17T22:38:43.602Z,95683.25
2022-08-17T22:41:10.141Z,95687.28
2022-08-17T22:43:36.525Z,95689.50
2022-08-17T22:46:03.082Z,95674.41
2022-08-17T22:48:29.464Z,95684.00
2022-08-17T22:50:55.834Z,95666.38
2022-08-17T22:53:23.543Z,95661.56
2022-08-17T22:55:49.920Z,95672.00
2022-08-17T22:58:16.324Z,95670.38
2022-08-17T23:00:42.741Z,95662.41
2022-08-17T23:03:09.241Z,95667.47
2022-08-17T23:05:35.692Z,95673.72
2022-08-17T23:08:02.108Z,95683.72
2022-08-17T23:10:28.475Z,95680.28
2022-08-17T23:12:54.828Z,95676.09
2022-08-17T23:15:21.248Z,95689.09
2022-08-17T23:17:47.678Z,95689.38
2022-08-17T23:20:14.123Z,95691.41
2022-08-17T23:22:52.025Z,95684.66
2022-08-17T23:25:19.295Z,95688.31
2022-08-17T23:27:47.064Z,95693.81
2022-08-17T23:30:13.475Z,95699.81
2022-08-17T23:32:53.173Z,95694.31
2022-08-17T23:35:20.394Z,95698.38
2022-08-17T23:38:06.820Z,95694.97
2022-08-17T23:40:33.253Z,95684.34
2022-08-17T23:42:59.633Z,95682.50
2022-08-17T23:45:26.009Z,95684.13
2022-08-17T23:47:52.598Z,95680.81
2022-08-17T23:50:19.097Z,95680.44
2022-08-17T23:52:46.619Z,95686.00
2022-08-17T23:55:13.073Z,95687.34
2022-08-17T23:57:39.468Z,95682.97
